sensor_id;sensor_type;location;lat;lon;timestamp;P1;durP1;ratioP1;P2;durP2;ratioP2
47287;SDS011;33020;53.008;13.558;2022-08-19T00:01:32;6.95;;;6.25;;
47287;SDS011;33020;53.008;13.558;2022-08-19T00:04:04;7.35;;;6.65;;
47287;SDS011;33020;53.008;13.558;2022-08-19T00:06:36;7.13;;;6.43;;
47287;SDS011;33020;53.008;13.558;2022-08-19T00:09:03;7.63;;;6.85;;
47287;SDS011;33020;53.008;13.558;2022-08-19T00:11:32;8.25;;;7.45;;
47287;SDS011;33020;53.008;13.558;2022-08-19T00:13:58;7.85;;;7.05;;
47287;SDS011;33020;53.008;13.558;2022-08-19T00:16:25;7.03;;;6.32;;
47287;SDS011;33020;53.008;13.558;2022-08-19T00:18:53;8.00;;;7.15;;
47287;SDS011;33020;53.008;13.558;2022-08-19T00:21:20;6.68;;;6.07;;
47287;SDS011;33020;53.008;13.558;2022-08-19T00:23:47;7.45;;;6.75;;
47287;SDS011;33020;53.008;13.558;2022-08-19T00:26:13;7.88;;;6.72;;
47287;SDS011;33020;53.008;13.558;2022-08-19T00:28:40;7.43;;;6.72;;
47287;SDS011;33020;53.008;13.558;2022-08-19T00:31:07;7.25;;;6.55;;
47287;SDS011;33020;53.008;13.558;2022-08-19T00:33:34;8.15;;;7.35;;
47287;SDS011;33020;53.008;13.558;2022-08-19T00:36:03;7.85;;;7.10;;
47287;SDS011;33020;53.008;13.558;2022-08-19T00:38:36;7.18;;;6.47;;
47287;SDS011;33020;53.008;13.558;2022-08-19T00:41:05;7.40;;;6.70;;
47287;SDS011;33020;53.008;13.558;2022-08-19T00:43:32;6.45;;;5.85;;
47287;SDS011;33020;53.008;13.558;2022-08-19T00:45:59;7.70;;;6.97;;
47287;SDS011;33020;53.008;13.558;2022-08-19T00:48:25;6.63;;;6.03;;
47287;SDS011;33020;53.008;13.558;2022-08-19T00:50:52;6.57;;;5.93;;
47287;SDS011;33020;53.008;13.558;2022-08-19T00:53:21;6.95;;;6.25;;
47287;SDS011;33020;53.008;13.558;2022-08-19T00:55:51;8.25;;;6.40;;
47287;SDS011;33020;53.008;13.558;2022-08-19T00:58:20;8.80;;;6.95;;
47287;SDS011;33020;53.008;13.558;2022-08-19T01:00:49;6.78;;;6.05;;
47287;SDS011;33020;53.008;13.558;2022-08-19T01:03:17;6.93;;;6.22;;
47287;SDS011;33020;53.008;13.558;2022-08-19T01:05:46;7.82;;;7.03;;
47287;SDS011;33020;53.008;13.558;2022-08-19T01:08:14;7.22;;;5.95;;
47287;SDS011;33020;53.008;13.558;2022-08-19T01:10:44;7.25;;;6.47;;
47287;SDS011;33020;53.008;13.558;2022-08-19T01:13:13;7.03;;;6.43;;
47287;SDS011;33020;53.008;13.558;2022-08-19T01:15:52;7.13;;;6.43;;
47287;SDS011;33020;53.008;13.558;2022-08-19T01:18:21;6.70;;;6.10;;
47287;SDS011;33020;53.008;13.558;2022-08-19T01:20:49;7.93;;;6.40;;
47287;SDS011;33020;53.008;13.558;2022-08-19T01:23:18;6.80;;;6.10;;
47287;SDS011;33020;53.008;13.558;2022-08-19T01:25:46;6.78;;;5.78;;
47287;SDS011;33020;53.008;13.558;2022-08-19T01:28:20;6.95;;;6.25;;
47287;SDS011;33020;53.008;13.558;2022-08-19T01:31:02;7.15;;;6.40;;
47287;SDS011;33020;53.008;13.558;2022-08-19T01:33:33;7.93;;;7.13;;
47287;SDS011;33020;53.008;13.558;2022-08-19T01:36:07;6.55;;;5.95;;
47287;SDS011;33020;53.008;13.558;2022-08-19T01:38:40;7.40;;;6.38;;
47287;SDS011;33020;53.008;13.558;2022-08-19T01:41:12;7.30;;;6.70;;
47287;SDS011;33020;53.008;13.558;2022-08-19T01:43:40;6.53;;;5.65;;
47287;SDS011;33020;53.008;13.558;2022-08-19T01:46:26;6.72;;;6.10;;
47287;SDS011;33020;53.008;13.558;2022-08-19T01:48:53;6.22;;;5.63;;
47287;SDS011;33020;53.008;13.558;2022-08-19T01:51:20;7.32;;;6.63;;
47287;SDS011;33020;53.008;13.558;2022-08-19T01:53:47;6.32;;;5.72;;
47287;SDS011;33020;53.008;13.558;2022-08-19T01:56:15;6.63;;;6.03;;
47287;SDS011;33020;53.008;13.558;2022-08-19T01:58:44;6.88;;;6.00;;
47287;SDS011;33020;53.008;13.558;2022-08-19T02:01:13;8.32;;;6.40;;
47287;SDS011;33020;53.008;13.558;2022-08-19T02:03:40;6.97;;;6.28;;
47287;SDS011;33020;53.008;13.558;2022-08-19T02:06:08;7.60;;;6.72;;
47287;SDS011;33020;53.008;13.558;2022-08-19T02:08:37;8.25;;;6.68;;
47287;SDS011;33020;53.008;13.558;2022-08-19T02:11:04;6.95;;;6.25;;
47287;SDS011;33020;53.008;13.558;2022-08-19T02:13:32;7.82;;;6.95;;
47287;SDS011;33020;53.008;13.558;2022-08-19T02:16:00;7.75;;;7.03;;
47287;SDS011;33020;53.008;13.558;2022-08-19T02:18:29;7.60;;;6.90;;
47287;SDS011;33020;53.008;13.558;2022-08-19T02:20:56;7.25;;;6.55;;
47287;SDS011;33020;53.008;13.558;2022-08-19T02:23:23;7.07;;;6.38;;
47287;SDS011;33020;53.008;13.558;2022-08-19T02:25:50;7.50;;;6.43;;
47287;SDS011;33020;53.008;13.558;2022-08-19T02:28:17;7.60;;;6.90;;
47287;SDS011;33020;53.008;13.558;2022-08-19T02:30:44;8.13;;;7.40;;
47287;SDS011;33020;53.008;13.558;2022-08-19T02:33:12;8.48;;;7.68;;
47287;SDS011;33020;53.008;13.558;2022-08-19T02:35:43;8.88;;;8.02;;
47287;SDS011;33020;53.008;13.558;2022-08-19T02:38:10;8.57;;;6.93;;
47287;SDS011;33020;53.008;13.558;2022-08-19T02:40:53;7.80;;;6.90;;
47287;SDS011;33020;53.008;13.558;2022-08-19T02:43:25;8.65;;;7.72;;
47287;SDS011;33020;53.008;13.558;2022-08-19T02:45:53;7.82;;;7.10;;
47287;SDS011;33020;53.008;13.558;2022-08-19T02:48:21;7.95;;;6.90;;
47287;SDS011;33020;53.008;13.558;2022-08-19T02:50:50;8.57;;;7.72;;
47287;SDS011;33020;53.008;13.558;2022-08-19T02:53:22;8.10;;;7.30;;
47287;SDS011;33020;53.008;13.558;2022-08-19T02:55:50;8.90;;;7.70;;
47287;SDS011;33020;53.008;13.558;2022-08-19T02:58:17;9.73;;;7.80;;
47287;SDS011;33020;53.008;13.558;2022-08-19T03:00:46;8.75;;;7.85;;
47287;SDS011;33020;53.008;13.558;2022-08-19T03:03:19;10.88;;;9.07;;
47287;SDS011;33020;53.008;13.558;2022-08-19T03:05:46;9.80;;;8.80;;
47287;SDS011;33020;53.008;13.558;2022-08-19T03:08:22;8.80;;;7.90;;
47287;SDS011;33020;53.008;13.558;2022-08-19T03:10:50;11.15;;;9.30;;
47287;SDS011;33020;53.008;13.558;2022-08-19T03:13:19;10.93;;;9.65;;
47287;SDS011;33020;53.008;13.558;2022-08-19T03:15:46;13.35;;;10.13;;
47287;SDS011;33020;53.008;13.558;2022-08-19T03:18:14;11.07;;;9.27;;
47287;SDS011;33020;53.008;13.558;2022-08-19T03:20:50;16.02;;;13.75;;
47287;SDS011;33020;53.008;13.558;2022-08-19T03:23:20;9.93;;;8.93;;
47287;SDS011;33020;53.008;13.558;2022-08-19T03:25:48;11.52;;;9.00;;
47287;SDS011;33020;53.008;13.558;2022-08-19T03:28:36;10.68;;;9.57;;
47287;SDS011;33020;53.008;13.558;2022-08-19T03:31:05;10.77;;;9.68;;
47287;SDS011;33020;53.008;13.558;2022-08-19T03:33:53;11.52;;;10.32;;
47287;SDS011;33020;53.008;13.558;2022-08-19T03:36:24;11.82;;;10.63;;
47287;SDS011;33020;53.008;13.558;2022-08-19T03:38:56;10.60;;;9.48;;
47287;SDS011;33020;53.008;13.558;2022-08-19T03:41:26;11.20;;;10.00;;
47287;SDS011;33020;53.008;13.558;2022-08-19T03:44:10;11.23;;;10.02;;
47287;SDS011;33020;53.008;13.558;2022-08-19T03:46:44;11.68;;;10.43;;
47287;SDS011;33020;53.008;13.558;2022-08-19T03:49:12;13.82;;;10.90;;
47287;SDS011;33020;53.008;13.558;2022-08-19T03:51:40;11.52;;;10.40;;
47287;SDS011;33020;53.008;13.558;2022-08-19T03:54:08;12.60;;;10.27;;
47287;SDS011;33020;53.008;13.558;2022-08-19T03:56:37;11.65;;;10.45;;
47287;SDS011;33020;53.008;13.558;2022-08-19T03:59:05;11.77;;;10.57;;
47287;SDS011;33020;53.008;13.558;2022-08-19T04:01:34;11.88;;;10.40;;
47287;SDS011;33020;53.008;13.558;2022-08-19T04:04:01;11.40;;;10.13;;
47287;SDS011;33020;53.008;13.558;2022-08-19T04:06:33;12.68;;;11.43;;
47287;SDS011;33020;53.008;13.558;2022-08-19T04:09:05;11.75;;;10.45;;
47287;SDS011;33020;53.008;13.558;2022-08-19T04:11:34;12.48;;;11.18;;
47287;SDS011;33020;53.008;13.558;2022-08-19T04:14:14;13.82;;;12.00;;
47287;SDS011;33020;53.008;13.558;2022-08-19T04:16:43;11.98;;;10.77;;
47287;SDS011;33020;53.008;13.558;2022-08-19T04:19:11;12.30;;;11.00;;
47287;SDS011;33020;53.008;13.558;2022-08-19T04:21:38;12.20;;;10.90;;
47287;SDS011;33020;53.008;13.558;2022-08-19T04:24:05;13.05;;;11.60;;
47287;SDS011;33020;53.008;13.558;2022-08-19T04:26:34;12.98;;;11.68;;
47287;SDS011;33020;53.008;13.558;2022-08-19T04:29:05;13.15;;;11.75;;
47287;SDS011;33020;53.008;13.558;2022-08-19T04:31:38;13.32;;;11.40;;
47287;SDS011;33020;53.008;13.558;2022-08-19T04:34:07;11.40;;;10.18;;
47287;SDS011;33020;53.008;13.558;2022-08-19T04:36:38;13.18;;;11.52;;
47287;SDS011;33020;53.008;13.558;2022-08-19T04:39:11;12.23;;;10.82;;
47287;SDS011;33020;53.008;13.558;2022-08-19T04:41:42;13.13;;;11.80;;
47287;SDS011;33020;53.008;13.558;2022-08-19T04:44:29;11.30;;;10.10;;
47287;SDS011;33020;53.008;13.558;2022-08-19T04:47:00;12.13;;;10.93;;
47287;SDS011;33020;53.008;13.558;2022-08-19T04:49:36;12.82;;;11.48;;
47287;SDS011;33020;53.008;13.558;2022-08-19T04:52:03;12.15;;;10.85;;
47287;SDS011;33020;53.008;13.558;2022-08-19T04:54:30;16.58;;;12.27;;
47287;SDS011;33020;53.008;13.558;2022-08-19T04:57:04;12.73;;;11.43;;
47287;SDS011;33020;53.008;13.558;2022-08-19T04:59:33;14.15;;;12.10;;
47287;SDS011;33020;53.008;13.558;2022-08-19T05:02:00;12.95;;;10.70;;
47287;SDS011;33020;53.008;13.558;2022-08-19T05:04:28;12.23;;;10.93;;
47287;SDS011;33020;53.008;13.558;2022-08-19T05:06:57;13.07;;;11.70;;
47287;SDS011;33020;53.008;13.558;2022-08-19T05:09:26;12.68;;;11.45;;
47287;SDS011;33020;53.008;13.558;2022-08-19T05:12:07;11.55;;;10.43;;
47287;SDS011;33020;53.008;13.558;2022-08-19T05:14:34;14.27;;;12.50;;
47287;SDS011;33020;53.008;13.558;2022-08-19T05:17:02;13.07;;;11.70;;
47287;SDS011;33020;53.008;13.558;2022-08-19T05:19:49;14.40;;;12.13;;
47287;SDS011;33020;53.008;13.558;2022-08-19T05:22:34;12.90;;;11.55;;
47287;SDS011;33020;53.008;13.558;2022-08-19T05:25:03;12.98;;;11.55;;
47287;SDS011;33020;53.008;13.558;2022-08-19T05:27:38;13.23;;;11.90;;
47287;SDS011;33020;53.008;13.558;2022-08-19T05:30:06;13.05;;;11.77;;
47287;SDS011;33020;53.008;13.558;2022-08-19T05:32:34;14.60;;;12.43;;
47287;SDS011;33020;53.008;13.558;2022-08-19T05:35:01;13.60;;;12.20;;
47287;SDS011;33020;53.008;13.558;2022-08-19T05:37:28;14.15;;;12.68;;
47287;SDS011;33020;53.008;13.558;2022-08-19T05:39:55;16.05;;;13.63;;
47287;SDS011;33020;53.008;13.558;2022-08-19T05:42:22;17.45;;;15.55;;
47287;SDS011;33020;53.008;13.558;2022-08-19T05:44:50;15.45;;;13.65;;
47287;SDS011;33020;53.008;13.558;2022-08-19T05:47:17;17.70;;;15.88;;
47287;SDS011;33020;53.008;13.558;2022-08-19T05:49:46;20.52;;;18.23;;
47287;SDS011;33020;53.008;13.558;2022-08-19T05:52:13;18.88;;;16.88;;
47287;SDS011;33020;53.008;13.558;2022-08-19T05:54:44;20.52;;;18.33;;
47287;SDS011;33020;53.008;13.558;2022-08-19T05:57:16;21.00;;;18.48;;
47287;SDS011;33020;53.008;13.558;2022-08-19T05:59:43;20.25;;;18.15;;
47287;SDS011;33020;53.008;13.558;2022-08-19T06:02:24;18.70;;;16.70;;
47287;SDS011;33020;53.008;13.558;2022-08-19T06:04:54;21.92;;;19.02;;
47287;SDS011;33020;53.008;13.558;2022-08-19T06:07:21;21.70;;;18.92;;
47287;SDS011;33020;53.008;13.558;2022-08-19T06:09:47;20.75;;;18.25;;
47287;SDS011;33020;53.008;13.558;2022-08-19T06:12:29;20.90;;;18.70;;
47287;SDS011;33020;53.008;13.558;2022-08-19T06:15:02;20.50;;;18.42;;
47287;SDS011;33020;53.008;13.558;2022-08-19T06:17:31;22.73;;;20.33;;
47287;SDS011;33020;53.008;13.558;2022-08-19T06:19:58;22.45;;;20.13;;
47287;SDS011;33020;53.008;13.558;2022-08-19T06:22:26;23.33;;;20.95;;
47287;SDS011;33020;53.008;13.558;2022-08-19T06:24:53;23.27;;;20.83;;
47287;SDS011;33020;53.008;13.558;2022-08-19T06:27:20;25.33;;;21.10;;
47287;SDS011;33020;53.008;13.558;2022-08-19T06:29:47;22.38;;;20.13;;
47287;SDS011;33020;53.008;13.558;2022-08-19T06:32:14;20.35;;;18.15;;
47287;SDS011;33020;53.008;13.558;2022-08-19T06:34:42;21.90;;;19.50;;
47287;SDS011;33020;53.008;13.558;2022-08-19T06:37:10;22.38;;;19.98;;
47287;SDS011;33020;53.008;13.558;2022-08-19T06:39:38;21.55;;;19.33;;
47287;SDS011;33020;53.008;13.558;2022-08-19T06:42:07;21.00;;;18.80;;
47287;SDS011;33020;53.008;13.558;2022-08-19T06:44:36;19.38;;;17.45;;
47287;SDS011;33020;53.008;13.558;2022-08-19T06:47:10;20.45;;;17.85;;
47287;SDS011;33020;53.008;13.558;2022-08-19T06:49:49;19.08;;;17.08;;
47287;SDS011;33020;53.008;13.558;2022-08-19T06:52:16;18.20;;;16.40;;
47287;SDS011;33020;53.008;13.558;2022-08-19T06:54:43;17.95;;;15.63;;
47287;SDS011;33020;53.008;13.558;2022-08-19T06:57:22;21.25;;;16.80;;
47287;SDS011;33020;53.008;13.558;2022-08-19T06:59:49;18.75;;;16.85;;
47287;SDS011;33020;53.008;13.558;2022-08-19T07:02:16;16.75;;;15.07;;
47287;SDS011;33020;53.008;13.558;2022-08-19T07:04:48;16.00;;;14.45;;
47287;SDS011;33020;53.008;13.558;2022-08-19T07:07:18;15.07;;;13.57;;
47287;SDS011;33020;53.008;13.558;2022-08-19T07:09:47;15.85;;;14.30;;
47287;SDS011;33020;53.008;13.558;2022-08-19T07:12:30;17.30;;;15.38;;
47287;SDS011;33020;53.008;13.558;2022-08-19T07:15:01;14.35;;;13.05;;
47287;SDS011;33020;53.008;13.558;2022-08-19T07:17:29;16.48;;;14.25;;
47287;SDS011;33020;53.008;13.558;2022-08-19T07:19:56;16.08;;;14.43;;
47287;SDS011;33020;53.008;13.558;2022-08-19T07:22:30;16.40;;;14.48;;
47287;SDS011;33020;53.008;13.558;2022-08-19T07:24:59;15.52;;;14.02;;
47287;SDS011;33020;53.008;13.558;2022-08-19T07:27:25;14.80;;;13.30;;
47287;SDS011;33020;53.008;13.558;2022-08-19T07:29:52;14.35;;;12.95;;
47287;SDS011;33020;53.008;13.558;2022-08-19T07:32:21;13.98;;;12.57;;
47287;SDS011;33020;53.008;13.558;2022-08-19T07:34:48;13.52;;;12.30;;
47287;SDS011;33020;53.008;13.558;2022-08-19T07:37:15;15.27;;;13.65;;
47287;SDS011;33020;53.008;13.558;2022-08-19T07:39:42;14.25;;;12.57;;
47287;SDS011;33020;53.008;13.558;2022-08-19T07:42:09;14.75;;;13.23;;
47287;SDS011;33020;53.008;13.558;2022-08-19T07:44:38;13.48;;;12.27;;
47287;SDS011;33020;53.008;13.558;2022-08-19T07:47:10;14.88;;;13.38;;
47287;SDS011;33020;53.008;13.558;2022-08-19T07:49:57;12.60;;;11.30;;
47287;SDS011;33020;53.008;13.558;2022-08-19T07:52:23;14.82;;;13.32;;
47287;SDS011;33020;53.008;13.558;2022-08-19T07:54:50;12.55;;;11.25;;
47287;SDS011;33020;53.008;13.558;2022-08-19T07:57:17;13.30;;;11.90;;
47287;SDS011;33020;53.008;13.558;2022-08-19T07:59:45;12.13;;;10.95;;
47287;SDS011;33020;53.008;13.558;2022-08-19T08:02:11;11.30;;;10.20;;
47287;SDS011;33020;53.008;13.558;2022-08-19T08:04:38;11.93;;;10.80;;
47287;SDS011;33020;53.008;13.558;2022-08-19T08:07:23;12.40;;;11.18;;
47287;SDS011;33020;53.008;13.558;2022-08-19T08:13:33;13.20;;;12.00;;
47287;SDS011;33020;53.008;13.558;2022-08-19T08:16:04;13.07;;;11.85;;
47287;SDS011;33020;53.008;13.558;2022-08-19T08:18:36;13.07;;;11.38;;
47287;SDS011;33020;53.008;13.558;2022-08-19T08:21:07;13.40;;;12.02;;
47287;SDS011;33020;53.008;13.558;2022-08-19T08:23:35;14.45;;;12.93;;
47287;SDS011;33020;53.008;13.558;2022-08-19T08:26:05;17.13;;;13.48;;
47287;SDS011;33020;53.008;13.558;2022-08-19T08:28:31;15.20;;;13.63;;
47287;SDS011;33020;53.008;13.558;2022-08-19T08:30:58;15.90;;;13.98;;
47287;SDS011;33020;53.008;13.558;2022-08-19T08:33:26;22.52;;;16.55;;
47287;SDS011;33020;53.008;13.558;2022-08-19T08:36:01;15.95;;;13.57;;
47287;SDS011;33020;53.008;13.558;2022-08-19T08:38:31;16.50;;;14.55;;
47287;SDS011;33020;53.008;13.558;2022-08-19T08:41:07;16.98;;;14.63;;
47287;SDS011;33020;53.008;13.558;2022-08-19T08:43:54;15.30;;;13.73;;
47287;SDS011;33020;53.008;13.558;2022-08-19T08:46:41;15.50;;;13.65;;
47287;SDS011;33020;53.008;13.558;2022-08-19T08:52:28;14.68;;;13.20;;
47287;SDS011;33020;53.008;13.558;2022-08-19T08:55:07;16.02;;;14.32;;
47287;SDS011;33020;53.008;13.558;2022-08-19T09:00:15;18.30;;;15.90;;
47287;SDS011;33020;53.008;13.558;2022-08-19T09:02:44;16.05;;;13.50;;
47287;SDS011;33020;53.008;13.558;2022-08-19T09:05:16;15.52;;;13.90;;
47287;SDS011;33020;53.008;13.558;2022-08-19T09:08:02;15.32;;;13.75;;
47287;SDS011;33020;53.008;13.558;2022-08-19T09:10:52;15.45;;;13.95;;
47287;SDS011;33020;53.008;13.558;2022-08-19T09:13:29;14.98;;;13.35;;
47287;SDS011;33020;53.008;13.558;2022-08-19T09:16:10;15.50;;;13.77;;
47287;SDS011;33020;53.008;13.558;2022-08-19T09:18:44;14.93;;;13.50;;
47287;SDS011;33020;53.008;13.558;2022-08-19T09:21:14;15.80;;;14.27;;
47287;SDS011;33020;53.008;13.558;2022-08-19T09:23:42;14.63;;;13.23;;
47287;SDS011;33020;53.008;13.558;2022-08-19T09:26:11;13.95;;;12.45;;
47287;SDS011;33020;53.008;13.558;2022-08-19T09:28:45;15.52;;;14.02;;
47287;SDS011;33020;53.008;13.558;2022-08-19T09:31:17;14.13;;;12.73;;
47287;SDS011;33020;53.008;13.558;2022-08-19T09:36:18;13.68;;;12.25;;
47287;SDS011;33020;53.008;13.558;2022-08-19T09:39:00;14.40;;;13.00;;
47287;SDS011;33020;53.008;13.558;2022-08-19T09:41:27;13.10;;;11.80;;
47287;SDS011;33020;53.008;13.558;2022-08-19T09:43:55;13.13;;;11.75;;
47287;SDS011;33020;53.008;13.558;2022-08-19T09:46:24;13.80;;;12.50;;
47287;SDS011;33020;53.008;13.558;2022-08-19T09:48:52;13.93;;;12.48;;
47287;SDS011;33020;53.008;13.558;2022-08-19T09:51:21;13.52;;;12.15;;
47287;SDS011;33020;53.008;13.558;2022-08-19T09:53:49;13.00;;;11.63;;
47287;SDS011;33020;53.008;13.558;2022-08-19T09:56:18;11.55;;;10.38;;
47287;SDS011;33020;53.008;13.558;2022-08-19T09:58:46;11.95;;;10.75;;
47287;SDS011;33020;53.008;13.558;2022-08-19T10:01:20;12.68;;;11.45;;
47287;SDS011;33020;53.008;13.558;2022-08-19T10:03:49;11.27;;;10.18;;
47287;SDS011;33020;53.008;13.558;2022-08-19T10:06:20;10.90;;;9.80;;
47287;SDS011;33020;53.008;13.558;2022-08-19T10:09:08;11.43;;;10.32;;
47287;SDS011;33020;53.008;13.558;2022-08-19T10:11:39;10.98;;;9.93;;
47287;SDS011;33020;53.008;13.558;2022-08-19T10:14:17;10.70;;;9.70;;
47287;SDS011;33020;53.008;13.558;2022-08-19T10:16:48;11.25;;;10.23;;
47287;SDS011;33020;53.008;13.558;2022-08-19T10:19:15;11.45;;;10.38;;
47287;SDS011;33020;53.008;13.558;2022-08-19T10:21:51;11.55;;;10.45;;
47287;SDS011;33020;53.008;13.558;2022-08-19T10:24:19;11.32;;;10.23;;
47287;SDS011;33020;53.008;13.558;2022-08-19T10:26:47;12.10;;;10.90;;
47287;SDS011;33020;53.008;13.558;2022-08-19T10:29:22;11.10;;;10.10;;
47287;SDS011;33020;53.008;13.558;2022-08-19T10:31:59;12.27;;;10.18;;
47287;SDS011;33020;53.008;13.558;2022-08-19T10:34:28;11.32;;;10.23;;
47287;SDS011;33020;53.008;13.558;2022-08-19T10:36:56;11.00;;;10.00;;
47287;SDS011;33020;53.008;13.558;2022-08-19T10:39:26;11.90;;;10.63;;
47287;SDS011;33020;53.008;13.558;2022-08-19T10:41:56;11.73;;;10.57;;
47287;SDS011;33020;53.008;13.558;2022-08-19T10:44:23;11.98;;;10.88;;
47287;SDS011;33020;53.008;13.558;2022-08-19T10:46:57;12.05;;;10.90;;
47287;SDS011;33020;53.008;13.558;2022-08-19T10:49:25;11.80;;;10.70;;
47287;SDS011;33020;53.008;13.558;2022-08-19T10:51:53;12.02;;;10.82;;
47287;SDS011;33020;53.008;13.558;2022-08-19T10:54:48;12.20;;;10.98;;
47287;SDS011;33020;53.008;13.558;2022-08-19T10:57:34;12.32;;;11.13;;
47287;SDS011;33020;53.008;13.558;2022-08-19T11:00:21;11.60;;;10.50;;
47287;SDS011;33020;53.008;13.558;2022-08-19T11:02:49;14.07;;;11.27;;
47287;SDS011;33020;53.008;13.558;2022-08-19T11:05:17;12.18;;;10.77;;
47287;SDS011;33020;53.008;13.558;2022-08-19T11:07:44;11.55;;;10.25;;
47287;SDS011;33020;53.008;13.558;2022-08-19T11:10:13;10.88;;;9.85;;
47287;SDS011;33020;53.008;13.558;2022-08-19T11:12:44;10.98;;;9.98;;
47287;SDS011;33020;53.008;13.558;2022-08-19T11:15:12;10.65;;;9.65;;
47287;SDS011;33020;53.008;13.558;2022-08-19T11:17:39;10.88;;;9.45;;
47287;SDS011;33020;53.008;13.558;2022-08-19T11:20:14;10.88;;;9.77;;
47287;SDS011;33020;53.008;13.558;2022-08-19T11:22:41;10.20;;;9.20;;
47287;SDS011;33020;53.008;13.558;2022-08-19T11:25:08;10.23;;;9.32;;
47287;SDS011;33020;53.008;13.558;2022-08-19T11:27:40;9.82;;;8.90;;
47287;SDS011;33020;53.008;13.558;2022-08-19T11:30:11;10.10;;;9.20;;
47287;SDS011;33020;53.008;13.558;2022-08-19T11:32:40;11.35;;;10.13;;
47287;SDS011;33020;53.008;13.558;2022-08-19T11:35:13;10.50;;;9.60;;
47287;SDS011;33020;53.008;13.558;2022-08-19T11:37:40;11.15;;;10.13;;
47287;SDS011;33020;53.008;13.558;2022-08-19T11:40:07;10.52;;;9.63;;
47287;SDS011;33020;53.008;13.558;2022-08-19T11:42:34;10.85;;;9.80;;
47287;SDS011;33020;53.008;13.558;2022-08-19T11:45:20;11.48;;;10.43;;
47287;SDS011;33020;53.008;13.558;2022-08-19T11:47:47;12.00;;;10.70;;
47287;SDS011;33020;53.008;13.558;2022-08-19T11:50:15;10.88;;;9.77;;
47287;SDS011;33020;53.008;13.558;2022-08-19T11:52:42;11.52;;;10.43;;
47287;SDS011;33020;53.008;13.558;2022-08-19T11:55:11;11.00;;;9.90;;
47287;SDS011;33020;53.008;13.558;2022-08-19T11:57:39;11.90;;;10.68;;
47287;SDS011;33020;53.008;13.558;2022-08-19T12:00:10;11.05;;;10.00;;
47287;SDS011;33020;53.008;13.558;2022-08-19T12:02:40;12.48;;;11.38;;
47287;SDS011;33020;53.008;13.558;2022-08-19T12:05:07;11.15;;;10.15;;
47287;SDS011;33020;53.008;13.558;2022-08-19T12:07:38;11.25;;;10.15;;
47287;SDS011;33020;53.008;13.558;2022-08-19T12:10:04;12.10;;;10.82;;
47287;SDS011;33020;53.008;13.558;2022-08-19T12:12:33;11.07;;;9.98;;
47287;SDS011;33020;53.008;13.558;2022-08-19T12:15:00;10.45;;;9.55;;
47287;SDS011;33020;53.008;13.558;2022-08-19T12:17:27;11.45;;;10.45;;
47287;SDS011;33020;53.008;13.558;2022-08-19T12:19:54;10.82;;;9.82;;
47287;SDS011;33020;53.008;13.558;2022-08-19T12:22:21;12.25;;;11.15;;
47287;SDS011;33020;53.008;13.558;2022-08-19T12:24:48;11.88;;;10.77;;
47287;SDS011;33020;53.008;13.558;2022-08-19T12:27:17;12.25;;;11.15;;
47287;SDS011;33020;53.008;13.558;2022-08-19T12:30:05;11.93;;;10.88;;
47287;SDS011;33020;53.008;13.558;2022-08-19T12:32:32;13.13;;;11.82;;
47287;SDS011;33020;53.008;13.558;2022-08-19T12:34:59;13.32;;;12.13;;
47287;SDS011;33020;53.008;13.558;2022-08-19T12:37:27;12.32;;;11.23;;
47287;SDS011;33020;53.008;13.558;2022-08-19T12:39:54;11.68;;;10.52;;
47287;SDS011;33020;53.008;13.558;2022-08-19T12:42:20;11.82;;;10.75;;
47287;SDS011;33020;53.008;13.558;2022-08-19T12:44:48;12.98;;;11.68;;
47287;SDS011;33020;53.008;13.558;2022-08-19T12:47:16;12.93;;;10.80;;
47287;SDS011;33020;53.008;13.558;2022-08-19T12:49:44;12.30;;;11.07;;
47287;SDS011;33020;53.008;13.558;2022-08-19T12:52:21;12.75;;;11.07;;
47287;SDS011;33020;53.008;13.558;2022-08-19T12:54:49;11.75;;;10.65;;
47287;SDS011;33020;53.008;13.558;2022-08-19T12:57:20;13.20;;;11.95;;
47287;SDS011;33020;53.008;13.558;2022-08-19T12:59:59;11.98;;;10.98;;
47287;SDS011;33020;53.008;13.558;2022-08-19T13:02:29;12.50;;;11.30;;
47287;SDS011;33020;53.008;13.558;2022-08-19T13:05:04;12.10;;;11.02;;
47287;SDS011;33020;53.008;13.558;2022-08-19T13:07:33;12.55;;;11.25;;
47287;SDS011;33020;53.008;13.558;2022-08-19T13:09:59;12.63;;;11.40;;
47287;SDS011;33020;53.008;13.558;2022-08-19T13:12:26;13.80;;;12.50;;
47287;SDS011;33020;53.008;13.558;2022-08-19T13:14:53;12.05;;;10.85;;
47287;SDS011;33020;53.008;13.558;2022-08-19T13:17:20;12.80;;;11.60;;
47287;SDS011;33020;53.008;13.558;2022-08-19T13:19:46;12.50;;;11.20;;
47287;SDS011;33020;53.008;13.558;2022-08-19T13:22:13;12.32;;;11.15;;
47287;SDS011;33020;53.008;13.558;2022-08-19T13:24:40;12.77;;;11.48;;
47287;SDS011;33020;53.008;13.558;2022-08-19T13:27:12;11.73;;;10.70;;
47287;SDS011;33020;53.008;13.558;2022-08-19T13:29:39;12.40;;;11.20;;
47287;SDS011;33020;53.008;13.558;2022-08-19T13:32:28;12.90;;;11.70;;
47287;SDS011;33020;53.008;13.558;2022-08-19T13:35:19;12.30;;;11.20;;
47287;SDS011;33020;53.008;13.558;2022-08-19T13:37:45;11.70;;;10.68;;
47287;SDS011;33020;53.008;13.558;2022-08-19T13:40:13;12.30;;;11.20;;
47287;SDS011;33020;53.008;13.558;2022-08-19T13:47:00;11.07;;;9.98;;
47287;SDS011;33020;53.008;13.558;2022-08-19T13:49:32;13.43;;;12.13;;
47287;SDS011;33020;53.008;13.558;2022-08-19T13:51:59;12.52;;;11.32;;
47287;SDS011;33020;53.008;13.558;2022-08-19T13:54:28;12.85;;;10.50;;
47287;SDS011;33020;53.008;13.558;2022-08-19T13:56:55;12.20;;;11.00;;
47287;SDS011;33020;53.008;13.558;2022-08-19T13:59:22;12.23;;;10.98;;
47287;SDS011;33020;53.008;13.558;2022-08-19T14:01:49;12.68;;;11.40;;
47287;SDS011;33020;53.008;13.558;2022-08-19T14:04:16;13.70;;;11.40;;
47287;SDS011;33020;53.008;13.558;2022-08-19T14:06:42;12.50;;;11.30;;
47287;SDS011;33020;53.008;13.558;2022-08-19T14:09:09;12.00;;;10.90;;
47287;SDS011;33020;53.008;13.558;2022-08-19T14:11:36;12.35;;;11.20;;
47287;SDS011;33020;53.008;13.558;2022-08-19T14:14:03;12.40;;;11.20;;
47287;SDS011;33020;53.008;13.558;2022-08-19T14:16:32;11.32;;;10.32;;
47287;SDS011;33020;53.008;13.558;2022-08-19T14:18:59;12.18;;;11.07;;
47287;SDS011;33020;53.008;13.558;2022-08-19T14:21:26;12.38;;;11.27;;
47287;SDS011;33020;53.008;13.558;2022-08-19T14:23:53;12.02;;;10.98;;
47287;SDS011;33020;53.008;13.558;2022-08-19T14:26:20;11.15;;;10.05;;
47287;SDS011;33020;53.008;13.558;2022-08-19T14:28:47;12.15;;;10.73;;
47287;SDS011;33020;53.008;13.558;2022-08-19T14:31:15;11.18;;;10.07;;
47287;SDS011;33020;53.008;13.558;2022-08-19T14:33:46;11.10;;;10.00;;
47287;SDS011;33020;53.008;13.558;2022-08-19T14:36:13;10.82;;;9.93;;
47287;SDS011;33020;53.008;13.558;2022-08-19T14:38:40;11.55;;;10.45;;
47287;SDS011;33020;53.008;13.558;2022-08-19T14:41:13;10.68;;;9.68;;
47287;SDS011;33020;53.008;13.558;2022-08-19T14:43:46;11.82;;;10.75;;
47287;SDS011;33020;53.008;13.558;2022-08-19T14:46:15;11.35;;;10.35;;
47287;SDS011;33020;53.008;13.558;2022-08-19T14:48:45;11.00;;;10.10;;
47287;SDS011;33020;53.008;13.558;2022-08-19T14:51:17;10.98;;;9.88;;